Time;durP1;ratioP1;P1;durP2;ratioP2;P2;SDS_P1;SDS_P2;PMS_P1;PMS_P2;Temp;Humidity;BMP_temperature;BMP_pressure;BME280_temperature;BME280_humidity;BME280_pressure;Samples;Min_cycle;Max_cycle;Signal;HPM_P1;HPM_P2
2021/06/22 00:02:05;;;;;;;;;;;;;;;14.75;100.00;98866.25;5051446;28;20287;-84
2021/06/22 00:04:31;;;;;;;;;;;;;;;14.51;100.00;98858.78;5051320;28;19975;-84
2021/06/22 00:06:56;;;;;;;;;;;;;;;14.88;100.00;98853.50;5052181;28;19925;-84
2021/06/22 00:09:21;;;;;;;;;;;;;;;14.99;100.00;98849.41;5051705;28;19920;-84
2021/06/22 00:11:47;;;;;;;;;;;;;;;14.61;100.00;98854.81;5050017;28;19971;-84
2021/06/22 00:14:12;;;;;;;;;;;;;;;14.96;100.00;98849.59;5053790;28;19920;-84
2021/06/22 00:16:37;;;;;;;;;;;;;;;14.70;100.00;98848.34;5049836;28;19967;-84
2021/06/22 00:19:03;;;;;;;;;;;;;;;14.47;100.00;98849.47;5051492;28;19920;-85
2021/06/22 00:21:28;;;;;;;;;;;;;;;14.89;100.00;98832.66;5035861;28;19920;-84
2021/06/22 00:23:54;;;;;;;;;;;;;;;15.46;100.00;98830.47;5051016;28;19948;-84
2021/06/22 00:26:19;;;;;;;;;;;;;;;15.31;100.00;98838.25;5035441;28;19927;-84
2021/06/22 00:28:44;;;;;;;;;;;;;;;14.88;100.00;98831.00;5034137;28;20662;-84
2021/06/22 00:31:10;;;;;;;;;;;;;;;15.87;100.00;98817.00;5053738;28;20371;-84
2021/06/22 00:33:35;;;;;;;;;;;;;;;14.60;100.00;98814.28;5051075;28;20118;-83
2021/06/22 00:36:00;;;;;;;;;;;;;;;15.33;100.00;98808.72;5036005;28;20066;-83
2021/06/22 00:38:26;;;;;;;;;;;;;;;15.24;100.00;98806.63;5034702;28;20533;-84
2021/06/22 00:40:51;;;;;;;;;;;;;;;14.51;100.00;98800.94;5051491;28;20085;-84
2021/06/22 00:43:16;;;;;;;;;;;;;;;14.31;100.00;98795.00;5034970;28;19928;-84
2021/06/22 00:45:43;;;;;;;;;;;;;;;14.21;100.00;98794.63;5051603;28;19925;-83
2021/06/22 00:48:08;;;;;;;;;;;;;;;14.68;100.00;98787.13;5050639;28;21410;-83
2021/06/22 00:50:34;;;;;;;;;;;;;;;14.08;100.00;98787.56;5051493;28;19942;-83
2021/06/22 00:52:59;;;;;;;;;;;;;;;14.11;100.00;98788.22;5037655;28;19929;-83
2021/06/22 00:55:34;;;;;;;;;;;;;;;14.22;100.00;98792.88;5055387;28;19921;-83
2021/06/22 00:58:03;;;;;;;;;;;;;;;14.76;100.00;98792.75;5053916;28;19931;-84
2021/06/22 01:00:29;;;;;;;;;;;;;;;14.13;100.00;98801.09;5053378;28;20043;-83
2021/06/22 01:02:55;;;;;;;;;;;;;;;14.01;100.00;98805.16;5054096;28;20537;-83
2021/06/22 01:05:21;;;;;;;;;;;;;;;14.29;100.00;98802.00;5054941;28;19920;-84
2021/06/22 01:07:47;;;;;;;;;;;;;;;14.31;100.00;98796.75;5055420;28;19927;-83
2021/06/22 01:10:12;;;;;;;;;;;;;;;13.94;100.00;98803.78;5055199;28;20632;-84
2021/06/22 01:12:37;;;;;;;;;;;;;;;14.54;100.00;98799.03;5053889;28;20572;-84
2021/06/22 01:15:10;;;;;;;;;;;;;;;15.08;100.00;98795.41;5038654;28;19960;-84
2021/06/22 01:17:35;;;;;;;;;;;;;;;14.49;100.00;98795.81;5054954;28;19930;-84
2021/06/22 01:20:00;;;;;;;;;;;;;;;14.67;100.00;98790.66;5056498;28;20376;-84
2021/06/22 01:22:26;;;;;;;;;;;;;;;14.33;100.00;98795.75;5053663;28;19963;-84
2021/06/22 01:24:53;;;;;;;;;;;;;;;14.05;100.00;98798.03;5055133;28;19920;-84
2021/06/22 01:27:19;;;;;;;;;;;;;;;14.39;100.00;98807.56;5037531;28;19924;-84
2021/06/22 01:29:44;;;;;;;;;;;;;;;14.42;100.00;98804.81;5040907;28;19931;-85
2021/06/22 01:32:09;;;;;;;;;;;;;;;14.57;100.00;98796.31;5038464;28;19928;-85
2021/06/22 01:34:35;;;;;;;;;;;;;;;14.63;100.00;98795.97;5058767;28;20354;-84
2021/06/22 01:37:00;;;;;;;;;;;;;;;14.54;100.00;98805.94;5058098;28;20380;-84
2021/06/22 01:39:26;;;;;;;;;;;;;;;14.25;100.00;98830.72;5058630;28;19973;-84
2021/06/22 01:41:51;;;;;;;;;;;;;;;15.29;100.00;98834.91;5056354;28;19981;-83
2021/06/22 01:44:16;;;;;;;;;;;;;;;15.20;100.00;98838.81;5058029;28;20851;-83
2021/06/22 01:46:42;;;;;;;;;;;;;;;15.05;100.00;98835.28;5040703;28;19931;-83
2021/06/22 01:49:07;;;;;;;;;;;;;;;15.20;100.00;98825.84;5040995;28;19923;-83
2021/06/22 01:51:33;;;;;;;;;;;;;;;15.06;100.00;98819.66;5040460;28;20011;-84
2021/06/22 01:53:59;;;;;;;;;;;;;;;15.47;100.00;98818.34;5049844;28;19931;-84
2021/06/22 01:56:25;;;;;;;;;;;;;;;14.99;100.00;98826.09;5057122;28;19959;-84
2021/06/22 01:58:50;;;;;;;;;;;;;;;14.90;100.00;98811.00;5058424;28;19924;-84
2021/06/22 02:01:16;;;;;;;;;;;;;;;14.10;100.00;98821.97;5041329;28;20681;-83
2021/06/22 02:03:41;;;;;;;;;;;;;;;14.41;100.00;98827.31;5075150;28;20032;-85
2021/06/22 02:06:07;;;;;;;;;;;;;;;14.54;100.00;98827.53;5058224;28;19916;-84
2021/06/22 02:08:32;;;;;;;;;;;;;;;14.30;100.00;98828.75;5040370;28;20038;-84
2021/06/22 02:10:57;;;;;;;;;;;;;;;14.25;100.00;98846.28;5074974;28;19931;-84
2021/06/22 02:13:25;;;;;;;;;;;;;;;13.54;100.00;98860.84;5056823;28;19916;-84
2021/06/22 02:15:50;;;;;;;;;;;;;;;13.99;100.00;98853.56;5040729;28;20801;-84
2021/06/22 02:18:15;;;;;;;;;;;;;;;13.90;100.00;98838.47;5057183;28;19959;-84
2021/06/22 02:20:41;;;;;;;;;;;;;;;13.89;100.00;98827.31;5057673;28;20023;-84
2021/06/22 02:23:07;;;;;;;;;;;;;;;14.01;100.00;98824.09;5039830;28;19928;-84
2021/06/22 02:25:33;;;;;;;;;;;;;;;14.09;100.00;98835.84;5057636;28;19927;-83
2021/06/22 02:28:09;;;;;;;;;;;;;;;14.08;100.00;98837.59;5052157;28;20193;-84
2021/06/22 02:30:35;;;;;;;;;;;;;;;14.23;100.00;98833.38;5056833;28;19943;-84
2021/06/22 02:33:00;;;;;;;;;;;;;;;14.09;100.00;98831.47;5057058;28;20530;-84
2021/06/22 02:35:25;;;;;;;;;;;;;;;14.09;100.00;98841.84;5055789;28;19935;-83
2021/06/22 02:37:52;;;;;;;;;;;;;;;14.34;100.00;98854.41;5039784;28;20737;-83
2021/06/22 02:40:17;;;;;;;;;;;;;;;14.96;100.00;98843.53;5056861;28;19959;-83
2021/06/22 02:42:43;;;;;;;;;;;;;;;14.98;100.00;98847.72;5056241;28;20676;-83
2021/06/22 02:45:08;;;;;;;;;;;;;;;15.05;100.00;98854.28;5056574;28;19935;-84
2021/06/22 02:47:33;;;;;;;;;;;;;;;14.97;100.00;98860.78;5055116;28;20279;-84
2021/06/22 02:49:59;;;;;;;;;;;;;;;14.80;100.00;98865.09;5056962;28;20442;-84
2021/06/22 02:52:24;;;;;;;;;;;;;;;15.01;100.00;98870.09;5075673;28;19926;-84
2021/06/22 02:54:49;;;;;;;;;;;;;;;14.38;100.00;98874.09;5039441;28;19928;-84
2021/06/22 02:57:15;;;;;;;;;;;;;;;14.24;100.00;98868.75;5039282;28;19919;-83
2021/06/22 02:59:40;;;;;;;;;;;;;;;14.95;100.00;98868.66;5056450;28;19975;-83
2021/06/22 03:02:06;;;;;;;;;;;;;;;14.53;100.00;98876.81;5056448;28;20463;-84
2021/06/22 03:04:31;;;;;;;;;;;;;;;13.75;100.00;98876.28;5056551;28;19920;-84
2021/06/22 03:06:57;;;;;;;;;;;;;;;13.87;100.00;98878.31;5055146;28;20530;-83
2021/06/22 03:09:22;;;;;;;;;;;;;;;14.54;100.00;98871.59;5056339;28;19977;-84
2021/06/22 03:11:48;;;;;;;;;;;;;;;13.90;100.00;98872.13;5039724;28;19973;-84
2021/06/22 03:14:13;;;;;;;;;;;;;;;14.41;100.00;98884.31;5039538;28;19924;-85
2021/06/22 03:16:39;;;;;;;;;;;;;;;14.95;100.00;98891.16;5039065;28;19927;-84
2021/06/22 03:19:04;;;;;;;;;;;;;;;13.64;100.00;98897.50;5055694;28;19931;-84
2021/06/22 03:21:29;;;;;;;;;;;;;;;13.91;100.00;98899.69;5055815;28;19992;-84
2021/06/22 03:23:55;;;;;;;;;;;;;;;13.55;100.00;98897.94;5056573;28;19932;-83
2021/06/22 03:26:20;;;;;;;;;;;;;;;13.41;100.00;98905.44;5056273;28;19942;-83
2021/06/22 03:28:45;;;;;;;;;;;;;;;13.17;100.00;98903.03;5055391;28;19928;-84
2021/06/22 03:31:11;;;;;;;;;;;;;;;13.68;100.00;98893.00;5039199;28;20370;-84
2021/06/22 03:33:36;;;;;;;;;;;;;;;13.57;100.00;98883.13;5056120;28;20030;-84
2021/06/22 03:36:02;;;;;;;;;;;;;;;13.66;100.00;98890.50;5056604;28;19931;-84
2021/06/22 03:38:27;;;;;;;;;;;;;;;13.78;100.00;98883.91;5039462;28;20384;-82
2021/06/22 03:40:53;;;;;;;;;;;;;;;13.53;100.00;98885.03;5074234;28;19999;-85
2021/06/22 03:43:20;;;;;;;;;;;;;;;13.96;100.00;98887.38;5036997;28;21105;-85
2021/06/22 03:45:45;;;;;;;;;;;;;;;13.99;100.00;98887.22;5036011;28;19955;-83
2021/06/22 03:48:10;;;;;;;;;;;;;;;13.56;100.00;98897.00;5053736;28;19927;-83
2021/06/22 03:50:36;;;;;;;;;;;;;;;13.74;100.00;98906.50;5038084;28;19928;-83
2021/06/22 03:53:01;;;;;;;;;;;;;;;13.98;100.00;98903.66;5073187;28;19924;-83
2021/06/22 03:55:27;;;;;;;;;;;;;;;13.85;100.00;98900.00;5055009;28;19971;-83
2021/06/22 03:57:53;;;;;;;;;;;;;;;13.77;100.00;98895.16;5054270;28;20038;-83
2021/06/22 04:00:19;;;;;;;;;;;;;;;14.56;100.00;98898.28;5039303;28;20895;-81
2021/06/22 04:02:44;;;;;;;;;;;;;;;14.86;100.00;98895.06;5056633;28;19921;-81
2021/06/22 04:05:10;;;;;;;;;;;;;;;14.20;100.00;98893.94;5039350;28;19932;-80
2021/06/22 04:07:35;;;;;;;;;;;;;;;14.12;100.00;98893.50;5053005;28;19991;-80
2021/06/22 04:10:01;;;;;;;;;;;;;;;14.89;100.00;98897.47;5048813;28;19920;-84
2021/06/22 04:12:26;;;;;;;;;;;;;;;14.88;100.00;98890.63;5051761;28;20036;-81
2021/06/22 04:14:51;;;;;;;;;;;;;;;13.94;100.00;98904.75;5038358;28;19924;-80
2021/06/22 04:17:17;;;;;;;;;;;;;;;13.76;100.00;98901.25;5053823;28;21086;-81
2021/06/22 04:19:42;;;;;;;;;;;;;;;14.58;100.00;98906.81;5069187;28;19932;-80
2021/06/22 04:22:07;;;;;;;;;;;;;;;14.64;100.00;98890.09;5044127;28;19924;-84
2021/06/22 04:24:33;;;;;;;;;;;;;;;14.11;100.00;98883.22;5053740;28;19924;-82
2021/06/22 04:26:58;;;;;;;;;;;;;;;14.59;100.00;98882.56;5055077;28;19947;-82
2021/06/22 04:29:23;;;;;;;;;;;;;;;14.51;100.00;98886.44;5041959;28;19934;-81
2021/06/22 04:31:48;;;;;;;;;;;;;;;14.05;100.00;98886.09;5041706;28;19928;-80
2021/06/22 04:34:14;;;;;;;;;;;;;;;13.89;100.00;98881.66;5059571;28;19924;-81
2021/06/22 04:36:39;;;;;;;;;;;;;;;14.13;100.00;98879.63;5059388;28;20059;-80
2021/06/22 04:39:05;;;;;;;;;;;;;;;13.72;100.00;98885.03;5060014;28;20002;-81
2021/06/22 04:41:31;;;;;;;;;;;;;;;14.87;100.00;98878.59;5058863;28;19990;-81
2021/06/22 04:43:57;;;;;;;;;;;;;;;14.76;100.00;98883.50;5077880;28;19931;-81
2021/06/22 04:46:22;;;;;;;;;;;;;;;14.80;100.00;98882.38;5059842;28;19924;-80
2021/06/22 04:48:47;;;;;;;;;;;;;;;14.13;100.00;98877.03;5059419;28;19928;-80
2021/06/22 04:51:13;;;;;;;;;;;;;;;14.25;100.00;98887.72;5060047;28;20439;-80
2021/06/22 04:53:38;;;;;;;;;;;;;;;13.84;100.00;98887.94;5059844;28;19923;-80
2021/06/22 04:56:03;;;;;;;;;;;;;;;13.66;100.00;98881.88;5042751;28;19934;-80
2021/06/22 04:58:29;;;;;;;;;;;;;;;14.36;100.00;98890.63;5059743;28;20372;-80
2021/06/22 05:00:54;;;;;;;;;;;;;;;14.13;100.00;98895.16;5043547;28;19924;-80
2021/06/22 05:03:19;;;;;;;;;;;;;;;13.70;100.00;98897.19;5059706;28;19935;-80
2021/06/22 05:05:45;;;;;;;;;;;;;;;14.41;100.00;98888.63;5040499;28;19924;-81
2021/06/22 05:08:10;;;;;;;;;;;;;;;14.61;100.00;98891.09;5042701;28;20383;-82
2021/06/22 05:10:35;;;;;;;;;;;;;;;14.20;100.00;98896.53;5076088;28;19966;-82
2021/06/22 05:13:01;;;;;;;;;;;;;;;14.36;100.00;98898.41;5076609;28;20009;-82
2021/06/22 05:15:26;;;;;;;;;;;;;;;14.45;100.00;98892.75;5058475;28;20047;-82
2021/06/22 05:17:51;;;;;;;;;;;;;;;14.54;100.00;98896.66;5041149;28;20736;-82
2021/06/22 05:20:17;;;;;;;;;;;;;;;14.58;100.00;98895.63;5043650;28;19931;-81
2021/06/22 05:22:42;;;;;;;;;;;;;;;14.35;100.00;98914.88;5046033;28;19924;-81
2021/06/22 05:25:08;;;;;;;;;;;;;;;14.81;100.00;98916.03;5044732;28;19924;-81
2021/06/22 05:27:33;;;;;;;;;;;;;;;14.29;100.00;98921.16;5059344;28;19979;-81
2021/06/22 05:29:59;;;;;;;;;;;;;;;14.49;100.00;98922.78;5042470;28;19931;-90
2021/06/22 05:32:24;;;;;;;;;;;;;;;14.96;100.00;98922.19;5025016;28;19982;-86
2021/06/22 05:34:49;;;;;;;;;;;;;;;15.30;100.00;98910.03;5038760;28;19924;-85
2021/06/22 05:37:15;;;;;;;;;;;;;;;15.07;100.00;98921.63;5022914;28;20592;-85
2021/06/22 05:39:40;;;;;;;;;;;;;;;14.52;100.00;98921.78;5022752;28;20049;-84
2021/06/22 05:42:06;;;;;;;;;;;;;;;14.90;100.00;98917.31;5023040;28;19924;-86
2021/06/22 05:44:31;;;;;;;;;;;;;;;14.11;100.00;98911.69;5041493;28;20594;-86
2021/06/22 05:46:56;;;;;;;;;;;;;;;15.10;100.00;98912.84;5023497;28;19973;-82
2021/06/22 05:49:22;;;;;;;;;;;;;;;14.46;100.00;98919.50;5026828;28;20047;-82
2021/06/22 05:51:47;;;;;;;;;;;;;;;15.53;100.00;98905.38;5040543;28;19948;-83
2021/06/22 05:54:13;;;;;;;;;;;;;;;14.88;100.00;98916.56;5022573;28;20587;-83
2021/06/22 05:56:38;;;;;;;;;;;;;;;15.33;100.00;98917.69;5038386;28;19936;-84
2021/06/22 05:59:03;;;;;;;;;;;;;;;15.24;100.00;98920.78;5038974;28;19945;-84
2021/06/22 06:01:29;;;;;;;;;;;;;;;14.68;100.00;98921.91;5024827;28;20742;-84
2021/06/22 06:03:54;;;;;;;;;;;;;;;15.29;100.00;98923.94;5057860;28;19924;-84
2021/06/22 06:06:19;;;;;;;;;;;;;;;14.87;100.00;98933.03;5023588;28;19929;-85
2021/06/22 06:08:46;;;;;;;;;;;;;;;14.93;100.00;98935.31;5040775;28;20562;-82
2021/06/22 06:11:11;;;;;;;;;;;;;;;14.96;100.00;98945.53;5043286;28;19929;-81
2021/06/22 06:13:37;;;;;;;;;;;;;;;15.34;100.00;98937.50;5040595;28;19986;-82
2021/06/22 06:16:03;;;;;;;;;;;;;;;15.28;100.00;98956.00;5039965;28;20085;-82
2021/06/22 06:18:28;;;;;;;;;;;;;;;15.31;100.00;98958.44;5038923;28;19954;-80
2021/06/22 06:20:55;;;;;;;;;;;;;;;16.30;100.00;98939.22;5022425;28;19967;-82
2021/06/22 06:23:21;;;;;;;;;;;;;;;15.29;100.00;98949.91;5039864;28;19929;-81
2021/06/22 06:25:47;;;;;;;;;;;;;;;15.05;100.00;98947.66;5038729;28;19928;-81
2021/06/22 06:28:26;;;;;;;;;;;;;;;14.85;100.00;98950.44;5045971;28;21007;-82
2021/06/22 06:30:52;;;;;;;;;;;;;;;14.50;100.00;98950.38;5047243;28;19932;-82
2021/06/22 06:33:17;;;;;;;;;;;;;;;15.22;100.00;98945.94;5069792;28;20840;-81
2021/06/22 06:35:42;;;;;;;;;;;;;;;14.41;100.00;98945.63;5078289;28;20991;-82
2021/06/22 06:38:08;;;;;;;;;;;;;;;15.63;100.00;98940.34;5082898;28;19928;-82
2021/06/22 06:40:34;;;;;;;;;;;;;;;15.97;100.00;98935.94;5080092;28;20293;-81
2021/06/22 06:43:00;;;;;;;;;;;;;;;16.34;100.00;98936.47;5080695;28;19932;-82
2021/06/22 06:45:25;;;;;;;;;;;;;;;15.17;100.00;98945.34;5099453;28;19939;-81
2021/06/22 06:47:51;;;;;;;;;;;;;;;15.00;100.00;98941.84;5083687;28;19920;-81
2021/06/22 06:50:16;;;;;;;;;;;;;;;15.58;100.00;98944.94;5099885;28;19943;-82
2021/06/22 06:52:42;;;;;;;;;;;;;;;15.06;100.00;98964.06;5082839;28;19912;-81
2021/06/22 06:55:26;;;;;;;;;;;;;;;15.65;100.00;98961.84;5081539;28;20233;-81
2021/06/22 06:57:53;;;;;;;;;;;;;;;16.31;100.00;98951.31;5085008;28;19916;-82
2021/06/22 07:00:18;;;;;;;;;;;;;;;16.01;100.00;98960.78;5085018;28;20019;-82
2021/06/22 07:02:44;;;;;;;;;;;;;;;15.44;100.00;98963.81;5101106;28;19942;-89
2021/06/22 07:05:09;;;;;;;;;;;;;;;15.20;100.00;98971.97;5066545;28;20154;-88
2021/06/22 07:07:35;;;;;;;;;;;;;;;15.51;100.00;98964.31;5084130;28;19916;-88
2021/06/22 07:10:00;;;;;;;;;;;;;;;14.72;100.00;98970.09;5066417;28;19924;-85
2021/06/22 07:12:25;;;;;;;;;;;;;;;15.13;100.00;98975.78;5065767;28;19905;-87
2021/06/22 07:14:51;;;;;;;;;;;;;;;14.58;100.00;98974.19;5065597;28;19934;-85
2021/06/22 07:17:16;;;;;;;;;;;;;;;15.32;100.00;98975.66;5082705;28;19954;-86
2021/06/22 07:19:41;;;;;;;;;;;;;;;15.48;100.00;98966.16;5081760;28;19916;-88
2021/06/22 07:22:07;;;;;;;;;;;;;;;16.00;100.00;98961.72;5065094;28;19924;-87
2021/06/22 07:24:32;;;;;;;;;;;;;;;16.10;100.00;98968.94;5065925;28;19975;-87
2021/06/22 07:26:57;;;;;;;;;;;;;;;15.67;100.00;98960.03;5067212;28;19928;-86
2021/06/22 07:29:23;;;;;;;;;;;;;;;15.70;100.00;98965.03;5081962;28;19952;-86
2021/06/22 07:31:48;;;;;;;;;;;;;;;15.48;100.00;98963.56;5082716;28;19932;-85
2021/06/22 07:34:13;;;;;;;;;;;;;;;15.13;100.00;98964.59;5081994;28;19923;-84
2021/06/22 07:36:39;;;;;;;;;;;;;;;16.00;100.00;98961.72;5065622;28;19908;-83
2021/06/22 07:39:04;;;;;;;;;;;;;;;15.73;100.00;98970.09;5102524;28;19908;-80
2021/06/22 07:41:30;;;;;;;;;;;;;;;15.61;100.00;98962.94;5082318;28;19996;-81
2021/06/22 07:43:55;;;;;;;;;;;;;;;16.33;100.00;98969.44;5083438;28;19980;-81
2021/06/22 07:46:21;;;;;;;;;;;;;;;16.07;100.00;98976.88;5067189;28;19994;-82
2021/06/22 07:48:46;;;;;;;;;;;;;;;15.55;100.00;98986.63;5100529;28;20457;-80
2021/06/22 07:51:11;;;;;;;;;;;;;;;15.25;100.00;98984.69;5083688;28;19999;-81
2021/06/22 07:53:37;;;;;;;;;;;;;;;15.52;100.00;98981.59;5083097;28;19916;-80
2021/06/22 07:56:02;;;;;;;;;;;;;;;15.41;100.00;98980.38;5084503;28;19908;-81
2021/06/22 07:58:28;;;;;;;;;;;;;;;15.79;100.00;98981.91;5101289;28;19923;-81
2021/06/22 08:00:54;;;;;;;;;;;;;;;15.79;100.00;98980.16;5083196;28;19908;-81
2021/06/22 08:03:20;;;;;;;;;;;;;;;15.93;100.00;98981.16;5066865;28;19916;-79
2021/06/22 08:05:47;;;;;;;;;;;;;;;16.38;100.00;98976.97;5101035;28;19916;-79
2021/06/22 08:08:14;;;;;;;;;;;;;;;16.72;100.00;98970.69;5083376;28;19975;-80
2021/06/22 08:10:39;;;;;;;;;;;;;;;16.61;100.00;98973.88;5101604;28;19922;-81
2021/06/22 08:13:06;;;;;;;;;;;;;;;16.61;100.00;98978.25;5066662;28;20121;-82
2021/06/22 08:15:31;;;;;;;;;;;;;;;16.45;100.00;98979.13;5081429;28;19908;-81
2021/06/22 08:17:57;;;;;;;;;;;;;;;15.91;100.00;98968.25;5064778;28;19927;-87
2021/06/22 08:20:22;;;;;;;;;;;;;;;16.47;100.00;98960.84;5081429;28;19920;-84
2021/06/22 08:22:52;;;;;;;;;;;;;;;15.72;100.00;98963.22;5100632;28;19908;-86
2021/06/22 08:25:18;;;;;;;;;;;;;;;16.57;100.00;98956.78;5081495;28;19972;-81
2021/06/22 08:27:44;;;;;;;;;;;;;;;16.41;100.00;98961.19;5077775;28;20678;-81
2021/06/22 08:30:10;;;;;;;;;;;;;;;17.11;100.00;98964.09;5059395;28;20010;-80
2021/06/22 08:32:38;;;;;;;;;;;;;;;17.18;100.00;98961.97;5075986;28;19927;-80
2021/06/22 08:35:04;;;;;;;;;;;;;;;17.96;100.00;98965.84;5042929;28;20003;-81
2021/06/22 08:37:29;;;;;;;;;;;;;;;18.46;100.00;98973.97;5058559;28;19940;-81
2021/06/22 08:39:54;;;;;;;;;;;;;;;18.16;100.00;98972.41;5058448;28;20258;-82
2021/06/22 08:42:20;;;;;;;;;;;;;;;18.15;100.00;98980.31;5058963;28;19908;-82
2021/06/22 08:44:45;;;;;;;;;;;;;;;18.11;100.00;98973.63;5059211;28;20095;-80
2021/06/22 08:47:14;;;;;;;;;;;;;;;17.80;100.00;98991.16;5058196;28;19916;-80
2021/06/22 08:49:39;;;;;;;;;;;;;;;17.60;100.00;98981.13;5061091;28;19968;-80
2021/06/22 08:52:05;;;;;;;;;;;;;;;17.44;100.00;98992.47;5059252;28;19908;-80
2021/06/22 08:54:31;;;;;;;;;;;;;;;17.73;100.00;98990.69;5044834;28;19940;-80
2021/06/22 08:56:58;;;;;;;;;;;;;;;19.10;100.00;98981.94;5061224;28;19987;-80
2021/06/22 08:59:23;;;;;;;;;;;;;;;18.82;100.00;98982.97;5043964;28;20142;-80
2021/06/22 09:01:49;;;;;;;;;;;;;;;19.11;100.00;98995.84;5062276;28;19925;-81
2021/06/22 09:04:15;;;;;;;;;;;;;;;18.77;100.00;98996.31;5060910;28;19936;-80
2021/06/22 09:06:41;;;;;;;;;;;;;;;18.95;100.00;98994.28;5044552;28;19928;-80
2021/06/22 09:09:08;;;;;;;;;;;;;;;18.76;100.00;98992.00;5060165;28;20216;-81
2021/06/22 09:11:33;;;;;;;;;;;;;;;18.75;100.00;98995.56;5061009;28;19955;-81
2021/06/22 09:14:00;;;;;;;;;;;;;;;18.11;100.00;99003.16;5062423;28;19920;-81
2021/06/22 09:16:25;;;;;;;;;;;;;;;17.39;100.00;99007.53;5064105;28;20221;-80
2021/06/22 09:18:51;;;;;;;;;;;;;;;18.44;100.00;98996.69;5065837;28;19955;-81
2021/06/22 09:21:18;;;;;;;;;;;;;;;18.14;100.00;98999.50;5081683;28;19928;-81
2021/06/22 09:23:48;;;;;;;;;;;;;;;18.19;100.00;98998.25;5081284;28;19948;-80
2021/06/22 09:26:21;;;;;;;;;;;;;;;19.02;100.00;99002.50;5080595;28;19946;-83
2021/06/22 09:28:47;;;;;;;;;;;;;;;18.23;100.00;98993.72;5024663;28;848446;-81
2021/06/22 09:31:14;;;;;;;;;;;;;;;18.37;100.00;99000.66;5079712;28;19934;-82
2021/06/22 09:33:39;;;;;;;;;;;;;;;17.63;100.00;99004.34;5083889;28;19916;-81
2021/06/22 09:36:12;;;;;;;;;;;;;;;17.95;100.00;98994.63;5102414;28;19916;-81
2021/06/22 09:38:39;;;;;;;;;;;;;;;18.93;100.00;98992.69;5085376;28;20006;-81
2021/06/22 09:41:28;;;;;;;;;;;;;;;18.25;100.00;98997.06;5067047;28;19926;-81
2021/06/22 09:43:53;;;;;;;;;;;;;;;18.30;100.00;99000.19;5074902;28;20128;-81
2021/06/22 09:46:31;;;;;;;;;;;;;;;19.13;100.00;99009.63;5101854;28;19916;-81
2021/06/22 09:48:59;;;;;;;;;;;;;;;19.38;100.00;98998.34;5100267;28;20194;-81
2021/06/22 09:51:30;;;;;;;;;;;;;;;20.22;98.28;98997.69;5082599;28;20380;-82
2021/06/22 09:54:06;;;;;;;;;;;;;;;19.29;90.42;99002.41;5083798;28;19923;-81
2021/06/22 09:56:32;;;;;;;;;;;;;;;18.72;91.05;98995.72;5082114;28;19923;-82
2021/06/22 09:58:57;;;;;;;;;;;;;;;18.11;99.68;99016.19;5081635;28;19924;-82
2021/06/22 10:01:30;;;;;;;;;;;;;;;18.22;93.08;99018.09;5083737;28;19923;-82
2021/06/22 10:03:58;;;;;;;;;;;;;;;17.91;97.85;99013.97;5083895;28;19935;-82
2021/06/22 10:06:24;;;;;;;;;;;;;;;19.17;97.36;99011.09;5082533;28;19948;-81
2021/06/22 10:08:58;;;;;;;;;;;;;;;18.46;95.09;99005.25;5066061;28;19931;-81
2021/06/22 10:11:30;;;;;;;;;;;;;;;19.38;92.68;98999.19;5066341;28;19924;-81
2021/06/22 10:13:56;;;;;;;;;;;;;;;18.48;97.99;99007.78;5067217;28;19924;-81
2021/06/22 10:16:22;;;;;;;;;;;;;;;18.87;94.20;99009.59;5082921;28;19922;-80
2021/06/22 10:18:47;;;;;;;;;;;;;;;18.36;99.94;99002.41;5080736;28;20011;-81
2021/06/22 10:21:13;;;;;;;;;;;;;;;18.23;100.00;99004.13;5082013;28;19924;-80
2021/06/22 10:23:38;;;;;;;;;;;;;;;18.95;98.81;99001.25;5081672;28;19916;-81
2021/06/22 10:26:06;;;;;;;;;;;;;;;19.33;90.76;98997.84;5081225;28;20656;-81
2021/06/22 10:28:33;;;;;;;;;;;;;;;19.69;97.05;99001.50;5080555;28;20003;-80
2021/06/22 10:30:58;;;;;;;;;;;;;;;18.94;100.00;98994.38;5067367;28;20207;-80
2021/06/22 10:33:23;;;;;;;;;;;;;;;19.05;100.00;98999.72;5079645;28;20238;-80
2021/06/22 10:35:49;;;;;;;;;;;;;;;19.22;100.00;98991.56;5065310;28;20434;-80
2021/06/22 10:38:14;;;;;;;;;;;;;;;19.05;100.00;98996.28;5057361;28;19920;-80
2021/06/22 10:40:39;;;;;;;;;;;;;;;19.56;91.59;98997.09;5041514;28;19925;-80
2021/06/22 10:43:06;;;;;;;;;;;;;;;18.11;100.00;98994.47;5057400;28;20007;-79
2021/06/22 10:45:31;;;;;;;;;;;;;;;18.99;96.61;99002.72;5074550;28;20379;-81
2021/06/22 10:47:59;;;;;;;;;;;;;;;18.58;100.00;99003.63;5056951;28;19920;-80
2021/06/22 10:50:29;;;;;;;;;;;;;;;20.23;93.24;99002.00;5074457;28;19924;-80
2021/06/22 10:52:54;;;;;;;;;;;;;;;19.18;97.69;99012.75;5054702;28;20265;-80
2021/06/22 10:55:20;;;;;;;;;;;;;;;19.39;94.54;99006.09;5076122;28;20221;-80
2021/06/22 10:58:04;;;;;;;;;;;;;;;18.03;100.00;99008.00;5056929;28;19954;-80
2021/06/22 11:00:29;;;;;;;;;;;;;;;18.29;100.00;99008.97;5056329;28;19915;-81
2021/06/22 11:03:01;;;;;;;;;;;;;;;18.69;100.00;99015.97;5075513;28;19927;-80
2021/06/22 11:05:26;;;;;;;;;;;;;;;17.69;100.00;99024.84;5074246;28;19916;-80
2021/06/22 11:08:24;;;;;;;;;;;;;;;18.63;100.00;99024.19;5038051;28;20587;-80
2021/06/22 11:10:55;;;;;;;;;;;;;;;18.79;100.00;99017.94;5028692;28;20002;-80
2021/06/22 11:13:33;;;;;;;;;;;;;;;19.09;100.00;99021.19;5055086;28;19924;-80
2021/06/22 11:16:01;;;;;;;;;;;;;;;19.59;94.87;99020.41;5074716;28;19920;-79
2021/06/22 11:18:27;;;;;;;;;;;;;;;18.30;100.00;99015.84;5039890;28;20394;-79
2021/06/22 11:21:04;;;;;;;;;;;;;;;19.11;98.88;99025.41;5056789;28;19920;-80
2021/06/22 11:23:30;;;;;;;;;;;;;;;20.00;92.75;99027.16;5073899;28;20022;-80
2021/06/22 11:26:03;;;;;;;;;;;;;;;19.64;90.76;99026.13;5038914;28;19919;-80
2021/06/22 11:28:29;;;;;;;;;;;;;;;19.08;96.50;99022.97;5055959;28;19923;-80
2021/06/22 11:30:56;;;;;;;;;;;;;;;18.95;98.49;99029.94;5073936;28;20409;-79
2021/06/22 11:33:28;;;;;;;;;;;;;;;18.78;97.72;99026.69;5073054;28;20080;-80
2021/06/22 11:36:13;;;;;;;;;;;;;;;19.91;90.30;99014.75;5073038;28;20108;-80
2021/06/22 11:38:38;;;;;;;;;;;;;;;19.71;99.12;99017.91;5074719;28;19975;-83
2021/06/22 11:41:11;;;;;;;;;;;;;;;19.47;94.12;99021.22;5038818;28;20086;-87
2021/06/22 11:43:36;;;;;;;;;;;;;;;20.27;87.86;99013.06;5039435;28;19920;-83
2021/06/22 11:46:37;;;;;;;;;;;;;;;19.88;85.78;99017.56;5053786;28;19927;-84
2021/06/22 11:49:03;;;;;;;;;;;;;;;20.56;86.18;99012.75;4973762;28;20004;-83
2021/06/22 11:51:47;;;;;;;;;;;;;;;21.54;85.15;99010.66;5039601;28;20163;-84
2021/06/22 11:54:12;;;;;;;;;;;;;;;19.71;89.83;99015.31;5076768;28;19920;-83
2021/06/22 11:56:38;;;;;;;;;;;;;;;19.64;92.01;99014.88;5059817;28;19920;-83
2021/06/22 11:59:03;;;;;;;;;;;;;;;19.68;90.56;99005.00;5061913;28;20261;-84
2021/06/22 12:01:28;;;;;;;;;;;;;;;19.44;92.67;99003.16;5045062;28;20350;-83
2021/06/22 12:03:54;;;;;;;;;;;;;;;17.98;97.76;99005.66;5045613;28;19947;-82
2021/06/22 12:06:23;;;;;;;;;;;;;;;18.90;97.43;98998.09;5044992;28;20589;-83
2021/06/22 12:08:48;;;;;;;;;;;;;;;20.27;85.83;98992.13;5060611;28;19920;-82
2021/06/22 12:11:26;;;;;;;;;;;;;;;20.15;90.19;98998.25;5061319;28;19922;-82
2021/06/22 12:13:53;;;;;;;;;;;;;;;20.55;84.39;99000.59;5060977;28;19927;-82
2021/06/22 12:16:25;;;;;;;;;;;;;;;19.21;89.25;99007.34;5044430;28;20081;-85
2021/06/22 12:18:51;;;;;;;;;;;;;;;19.72;83.87;99007.34;5055881;28;19924;-83
2021/06/22 12:21:17;;;;;;;;;;;;;;;19.56;87.05;99012.75;5054591;28;20163;-83
2021/06/22 12:23:42;;;;;;;;;;;;;;;20.67;88.97;99007.59;5054494;28;20029;-84
2021/06/22 12:26:08;;;;;;;;;;;;;;;19.91;84.02;99003.44;5054376;28;19943;-85
2021/06/22 12:28:34;;;;;;;;;;;;;;;20.55;87.02;98995.34;5054362;28;19994;-80
2021/06/22 12:31:00;;;;;;;;;;;;;;;19.96;90.86;99001.34;5055130;28;20019;-81
2021/06/22 12:33:29;;;;;;;;;;;;;;;20.92;92.83;98995.31;5053769;28;19920;-81
2021/06/22 12:35:59;;;;;;;;;;;;;;;20.47;81.33;99004.59;5048396;28;19929;-82